createdAt,value
2019-05-18T00:00:38.406Z,5.70
2019-05-18T00:03:06.795Z,5.40
2019-05-18T00:05:35.173Z,5.87
2019-05-18T00:08:03.428Z,6.95
2019-05-18T00:10:31.745Z,7.00
2019-05-18T00:13:00.127Z,8.18
2019-05-18T00:15:28.370Z,6.55
2019-05-18T00:17:57.780Z,5.95
2019-05-18T00:20:26.085Z,9.53
2019-05-18T00:22:54.434Z,7.40
2019-05-18T00:25:22.836Z,6.28
2019-05-18T00:27:51.291Z,10.60
2019-05-18T00:30:19.757Z,6.40
2019-05-18T00:32:48.172Z,5.58
2019-05-18T00:35:16.839Z,5.83
2019-05-18T00:37:45.239Z,10.90
2019-05-18T00:40:13.723Z,7.25
2019-05-18T00:42:41.977Z,7.25
2019-05-18T00:45:10.280Z,6.42
2019-05-18T00:47:41.852Z,6.17
2019-05-18T00:50:08.876Z,5.85
2019-05-18T00:52:37.142Z,6.80
2019-05-18T00:55:06.840Z,7.20
2019-05-18T00:57:35.143Z,7.05
2019-05-18T01:00:05.330Z,9.03
2019-05-18T01:02:33.707Z,5.90
2019-05-18T01:05:02.097Z,6.87
2019-05-18T01:07:31.695Z,8.03
2019-05-18T01:10:00.089Z,8.53
2019-05-18T01:12:28.384Z,7.08
2019-05-18T01:14:56.641Z,7.12
2019-05-18T01:17:26.034Z,8.18
2019-05-18T01:19:54.311Z,6.70
2019-05-18T01:22:22.679Z,7.08
2019-05-18T01:24:50.890Z,9.63
2019-05-18T01:27:19.175Z,5.37
2019-05-18T01:29:47.539Z,8.53
2019-05-18T01:32:15.817Z,6.55
2019-05-18T01:34:45.182Z,7.67
2019-05-18T01:37:13.578Z,6.00
2019-05-18T01:39:41.978Z,10.00
2019-05-18T01:42:11.439Z,7.85
2019-05-18T01:44:39.729Z,7.33
2019-05-18T01:47:08.039Z,7.60
2019-05-18T01:49:36.308Z,7.62
2019-05-18T01:52:04.607Z,10.30
2019-05-18T01:54:32.866Z,7.22
2019-05-18T01:57:01.355Z,8.50
2019-05-18T01:59:29.706Z,8.40
2019-05-18T02:01:58.095Z,9.33
2019-05-18T02:04:26.464Z,9.53
2019-05-18T02:06:55.571Z,9.95
2019-05-18T02:09:23.933Z,8.08
2019-05-18T02:11:55.091Z,8.95
2019-05-18T02:14:23.379Z,7.35
2019-05-18T02:16:51.573Z,7.33
2019-05-18T02:19:19.869Z,6.90
2019-05-18T02:21:48.183Z,8.58
2019-05-18T02:24:16.560Z,9.10
2019-05-18T02:26:44.830Z,7.78
2019-05-18T02:29:13.144Z,12.33
2019-05-18T02:31:41.497Z,7.95
2019-05-18T02:34:09.789Z,7.87
2019-05-18T02:36:39.245Z,6.83
2019-05-18T02:39:08.326Z,7.35
2019-05-18T02:41:36.670Z,8.53
2019-05-18T02:44:05.233Z,7.92
2019-05-18T02:46:33.601Z,7.22
2019-05-18T02:49:02.085Z,9.10
2019-05-18T02:51:30.353Z,7.78
2019-05-18T02:53:58.662Z,9.65
2019-05-18T02:56:27.022Z,10.98
2019-05-18T02:58:55.311Z,9.48
2019-05-18T03:01:25.502Z,7.75
2019-05-18T03:03:53.998Z,10.18
2019-05-18T03:06:22.301Z,11.48
2019-05-18T03:08:50.585Z,12.43
2019-05-18T03:11:19.009Z,11.18
2019-05-18T03:13:47.482Z,12.78
2019-05-18T03:16:15.908Z,11.22
2019-05-18T03:18:44.178Z,8.08
2019-05-18T03:21:12.555Z,9.40
2019-05-18T03:23:41.970Z,9.90
2019-05-18T03:26:10.300Z,9.10
2019-05-18T03:28:38.803Z,10.15
2019-05-18T03:31:07.003Z,12.28
2019-05-18T03:33:35.437Z,9.80
2019-05-18T03:36:03.741Z,7.72
2019-05-18T03:38:32.116Z,10.15
2019-05-18T03:41:00.417Z,8.08
2019-05-18T03:43:28.682Z,9.73
2019-05-18T03:45:56.962Z,13.43
2019-05-18T03:48:25.322Z,8.48
2019-05-18T03:50:53.686Z,9.48
2019-05-18T03:53:22.057Z,8.85
2019-05-18T03:55:50.360Z,7.95
2019-05-18T03:58:18.720Z,9.73
2019-05-18T04:00:47.017Z,8.75
2019-05-18T04:03:15.365Z,8.08
2019-05-18T04:05:43.663Z,8.85
2019-05-18T04:08:11.973Z,8.20
2019-05-18T04:10:40.238Z,8.03
2019-05-18T04:13:08.533Z,7.67
2019-05-18T04:15:36.830Z,8.08
2019-05-18T04:18:05.207Z,9.60
2019-05-18T04:20:33.535Z,13.68
2019-05-18T04:23:01.808Z,11.85
2019-05-18T04:25:30.201Z,13.43
2019-05-18T04:27:58.659Z,16.00
2019-05-18T04:30:27.124Z,14.68
2019-05-18T04:32:55.399Z,26.75
2019-05-18T04:35:23.820Z,21.15
2019-05-18T04:37:52.009Z,25.23
2019-05-18T04:40:20.370Z,24.27
2019-05-18T04:42:48.729Z,21.07
2019-05-18T04:45:17.074Z,20.80
2019-05-18T04:47:48.496Z,19.77
2019-05-18T04:50:15.374Z,20.68
2019-05-18T04:52:44.603Z,18.37
2019-05-18T04:55:14.074Z,20.65
2019-05-18T04:57:43.606Z,18.90
2019-05-18T05:00:12.197Z,18.32
2019-05-18T05:02:42.363Z,19.73
2019-05-18T05:05:10.808Z,18.87
2019-05-18T05:07:39.192Z,18.77
2019-05-18T05:10:07.446Z,19.73
2019-05-18T05:12:35.825Z,21.07
2019-05-18T05:15:04.624Z,15.98
2019-05-18T05:17:32.963Z,18.17
2019-05-18T05:20:01.267Z,16.97
2019-05-18T05:22:29.585Z,15.43
2019-05-18T05:24:57.925Z,15.78
2019-05-18T05:27:26.211Z,14.23
2019-05-18T05:29:54.495Z,13.85
2019-05-18T05:32:24.087Z,13.48
2019-05-18T05:34:52.379Z,11.70
2019-05-18T05:40:08.675Z,13.85
2019-05-18T05:42:36.967Z,12.70
2019-05-18T05:45:08.628Z,12.98
2019-05-18T05:47:36.890Z,13.08
2019-05-18T05:50:07.417Z,13.10
2019-05-18T05:52:35.793Z,12.07
2019-05-18T05:55:07.361Z,12.10
2019-05-18T05:57:35.731Z,12.43
2019-05-18T06:00:05.529Z,10.95
2019-05-18T06:02:33.913Z,10.75
2019-05-18T06:05:02.397Z,11.10
2019-05-18T06:07:30.795Z,11.28
2019-05-18T06:10:02.267Z,10.13
2019-05-18T06:12:30.811Z,11.35
2019-05-18T06:14:59.146Z,9.95
2019-05-18T06:17:27.587Z,9.68
2019-05-18T06:19:55.997Z,9.10
2019-05-18T06:22:25.443Z,9.40
2019-05-18T06:24:53.754Z,8.98
2019-05-18T06:27:22.041Z,8.20
2019-05-18T06:29:50.381Z,9.03
2019-05-18T06:32:18.775Z,7.92
2019-05-18T06:34:46.993Z,8.15
2019-05-18T06:37:15.338Z,8.05
2019-05-18T06:39:43.799Z,7.97
2019-05-18T06:42:13.142Z,6.72
2019-05-18T06:44:41.525Z,6.65
2019-05-18T06:47:09.975Z,6.87
2019-05-18T06:49:38.427Z,6.67
2019-05-18T06:52:06.824Z,6.20
2019-05-18T06:54:35.315Z,6.92
2019-05-18T06:57:03.717Z,6.62
2019-05-18T06:59:33.644Z,6.25
2019-05-18T07:02:01.980Z,5.62
2019-05-18T07:04:30.214Z,6.50
2019-05-18T07:06:58.616Z,5.78
2019-05-18T07:09:26.962Z,5.05
2019-05-18T07:11:56.210Z,5.45
2019-05-18T07:14:25.977Z,6.55
2019-05-18T07:16:54.713Z,5.17
2019-05-18T07:19:23.190Z,5.22
2019-05-18T07:21:51.775Z,6.33
2019-05-18T07:24:20.746Z,5.15
2019-05-18T07:26:49.152Z,5.10
2019-05-18T07:29:17.502Z,5.53
2019-05-18T07:31:45.992Z,5.67
2019-05-18T07:34:14.364Z,5.28
2019-05-18T07:36:42.861Z,6.75
2019-05-18T07:39:11.225Z,5.80
2019-05-18T07:41:46.690Z,4.37
2019-05-18T07:44:10.047Z,6.45
2019-05-18T07:46:38.734Z,4.90
2019-05-18T07:49:07.087Z,5.35
2019-05-18T07:51:37.341Z,5.87
2019-05-18T07:54:06.160Z,4.92
2019-05-18T07:56:35.871Z,4.78
2019-05-18T07:59:04.307Z,5.00
2019-05-18T08:01:32.800Z,4.53
2019-05-18T08:04:01.171Z,4.67
2019-05-18T08:06:29.876Z,4.62
2019-05-18T08:08:58.146Z,3.80
2019-05-18T08:11:26.504Z,4.45
2019-05-18T08:13:54.991Z,3.65
2019-05-18T08:16:23.277Z,4.80
2019-05-18T08:18:51.819Z,5.00
2019-05-18T08:21:20.337Z,3.62
2019-05-18T08:23:49.745Z,3.72
2019-05-18T08:26:18.265Z,3.87
2019-05-18T08:28:46.562Z,4.60
2019-05-18T08:31:14.837Z,2.92
2019-05-18T08:33:43.144Z,3.55
2019-05-18T08:36:12.057Z,4.05
2019-05-18T08:38:40.513Z,4.12
2019-05-18T08:41:10.536Z,5.17
2019-05-18T08:43:41.620Z,2.85
2019-05-18T08:46:10.052Z,3.08
2019-05-18T08:48:40.771Z,3.00
2019-05-18T08:51:09.123Z,3.33
2019-05-18T08:53:37.338Z,2.80
2019-05-18T08:56:05.831Z,2.60
2019-05-18T08:58:34.208Z,2.50
2019-05-18T09:01:02.484Z,3.15
2019-05-18T09:03:30.884Z,3.40
2019-05-18T09:05:59.450Z,2.80
2019-05-18T09:08:28.027Z,2.85
2019-05-18T09:10:56.530Z,3.17
2019-05-18T09:13:24.972Z,2.80
2019-05-18T09:15:53.261Z,2.58
2019-05-18T09:18:21.752Z,2.70
2019-05-18T09:20:50.125Z,2.65
2019-05-18T09:23:18.361Z,3.87
2019-05-18T09:25:46.773Z,3.40
2019-05-18T09:28:15.050Z,3.00
2019-05-18T09:30:43.407Z,3.45
2019-05-18T09:33:11.761Z,2.87
2019-05-18T09:35:40.045Z,3.45
2019-05-18T09:38:08.265Z,3.77
2019-05-18T09:40:36.737Z,3.35
2019-05-18T09:43:05.315Z,3.92
2019-05-18T09:45:33.814Z,3.90
2019-05-18T09:48:02.171Z,3.00
2019-05-18T09:50:30.697Z,4.58
2019-05-18T09:52:59.243Z,3.65
2019-05-18T09:55:27.613Z,3.83
2019-05-18T09:57:55.999Z,3.22
2019-05-18T10:00:24.471Z,5.87
2019-05-18T10:02:52.851Z,3.55
2019-05-18T10:05:21.256Z,2.92
2019-05-18T10:07:49.515Z,3.77
2019-05-18T10:10:17.808Z,4.65
2019-05-18T10:12:46.267Z,4.65
2019-05-18T10:15:14.830Z,4.17
2019-05-18T10:17:43.335Z,3.85
2019-05-18T10:20:12.632Z,4.62
2019-05-18T10:22:53.447Z,3.62
2019-05-18T10:25:11.479Z,4.40
2019-05-18T10:27:39.826Z,4.33
2019-05-18T10:30:08.411Z,4.37
2019-05-18T10:32:36.796Z,3.90
2019-05-18T10:35:06.302Z,4.35
2019-05-18T10:37:34.652Z,3.75
2019-05-18T10:40:03.896Z,3.77
2019-05-18T10:42:32.210Z,3.60
2019-05-18T10:45:00.504Z,3.70
2019-05-18T10:47:28.872Z,3.40
2019-05-18T10:49:57.255Z,4.25
2019-05-18T10:52:25.667Z,4.45
2019-05-18T10:54:55.298Z,3.65
2019-05-18T10:57:23.631Z,4.12
2019-05-18T10:59:52.005Z,4.55
2019-05-18T11:02:20.380Z,3.22
2019-05-18T11:04:48.770Z,3.47
2019-05-18T11:07:17.064Z,3.47
2019-05-18T11:09:45.430Z,3.60
2019-05-18T11:12:14.838Z,5.17
2019-05-18T11:14:43.090Z,4.45
2019-05-18T11:17:11.472Z,3.65
2019-05-18T11:19:39.865Z,3.27
2019-05-18T11:22:08.241Z,3.80
2019-05-18T11:24:36.612Z,3.83
2019-05-18T11:27:04.949Z,4.40
2019-05-18T11:29:33.494Z,4.08
2019-05-18T11:32:01.973Z,5.12
2019-05-18T11:34:30.543Z,4.87
2019-05-18T11:36:58.913Z,5.12
2019-05-18T11:39:27.411Z,5.17
2019-05-18T11:41:56.018Z,4.67
2019-05-18T11:44:24.785Z,4.95
2019-05-18T11:46:54.475Z,4.55
2019-05-18T11:49:22.853Z,5.22
2019-05-18T11:51:51.453Z,4.58
2019-05-18T11:54:20.461Z,4.28
2019-05-18T11:56:48.953Z,6.65
2019-05-18T11:59:17.621Z,5.05
2019-05-18T12:01:46.396Z,4.70
2019-05-18T12:04:15.087Z,4.30
2019-05-18T12:06:43.653Z,5.15
2019-05-18T12:09:14.813Z,5.65
2019-05-18T12:11:44.324Z,3.55
2019-05-18T12:14:13.930Z,4.17
2019-05-18T12:16:42.238Z,3.75
2019-05-18T12:19:11.712Z,5.90
2019-05-18T12:21:40.275Z,5.22
2019-05-18T12:24:15.568Z,4.75
2019-05-18T12:26:40.735Z,4.95
2019-05-18T12:29:10.536Z,5.95
2019-05-18T12:31:39.402Z,10.78
2019-05-18T12:34:08.021Z,9.20
2019-05-18T12:36:42.441Z,8.83
2019-05-18T12:39:52.299Z,9.70
2019-05-18T12:42:22.012Z,7.80
2019-05-18T12:44:53.725Z,9.43
2019-05-18T12:47:25.213Z,8.95
2019-05-18T12:49:56.944Z,8.38
2019-05-18T12:52:26.872Z,7.95
2019-05-18T12:54:55.351Z,9.43
2019-05-18T12:57:23.858Z,8.65
2019-05-18T12:59:52.326Z,8.30
2019-05-18T13:02:20.821Z,7.70
2019-05-18T13:04:49.020Z,8.70
2019-05-18T13:07:17.463Z,7.97
2019-05-18T13:09:46.957Z,8.25
2019-05-18T13:12:15.357Z,6.95
2019-05-18T13:14:43.831Z,8.58
2019-05-18T13:17:12.194Z,8.08
2019-05-18T13:19:40.594Z,8.33
2019-05-18T13:22:09.173Z,7.65
2019-05-18T13:24:45.156Z,6.97
2019-05-18T13:27:07.554Z,7.50
2019-05-18T13:29:35.999Z,9.28
2019-05-18T13:32:04.629Z,8.70
2019-05-18T13:34:33.099Z,7.45
2019-05-18T13:37:01.574Z,6.92
2019-05-18T13:39:30.001Z,8.00
2019-05-18T13:41:58.340Z,8.50
2019-05-18T13:44:26.925Z,8.05
2019-05-18T13:46:55.417Z,8.50
2019-05-18T13:49:23.888Z,7.92
2019-05-18T13:51:52.443Z,8.53
2019-05-18T13:54:21.053Z,7.95
2019-05-18T13:56:49.467Z,8.25
2019-05-18T13:59:17.761Z,7.15
2019-05-18T14:01:46.184Z,6.85
2019-05-18T14:04:14.548Z,6.80
2019-05-18T14:06:42.947Z,7.08
2019-05-18T14:09:11.311Z,6.85
2019-05-18T14:11:39.701Z,6.60
2019-05-18T14:14:08.089Z,6.70
2019-05-18T14:16:36.563Z,7.65
2019-05-18T14:19:05.920Z,7.20
2019-05-18T14:21:34.342Z,5.72
2019-05-18T14:24:02.716Z,5.28
2019-05-18T14:26:31.270Z,3.17
2019-05-18T14:29:00.900Z,2.75
2019-05-18T14:31:29.281Z,2.67
2019-05-18T14:33:57.766Z,3.42
2019-05-18T14:36:26.094Z,2.60
2019-05-18T14:38:56.753Z,6.45
2019-05-18T14:41:24.761Z,2.12
2019-05-18T14:43:53.246Z,2.22
2019-05-18T14:46:21.824Z,2.90
2019-05-18T14:48:50.402Z,2.62
2019-05-18T14:51:18.874Z,2.95
2019-05-18T14:53:47.460Z,2.55
2019-05-18T14:56:15.836Z,3.72
2019-05-18T14:58:44.215Z,3.98
2019-05-18T15:01:12.601Z,2.72
2019-05-18T15:03:40.942Z,2.25
2019-05-18T15:06:09.265Z,1.72
2019-05-18T15:08:37.612Z,2.98
2019-05-18T15:11:05.912Z,2.37
2019-05-18T15:13:34.268Z,2.45
2019-05-18T15:16:02.602Z,3.75
2019-05-18T15:18:30.911Z,2.30
2019-05-18T15:20:59.208Z,2.67
2019-05-18T15:23:27.406Z,2.80
2019-05-18T15:25:55.862Z,3.55
2019-05-18T15:28:24.243Z,2.87
2019-05-18T15:30:52.561Z,2.33
2019-05-18T15:33:20.874Z,2.55
2019-05-18T15:35:49.256Z,3.95
2019-05-18T15:38:17.558Z,3.22
2019-05-18T15:40:45.942Z,2.75
2019-05-18T15:43:14.317Z,2.02
2019-05-18T15:45:44.471Z,2.22
2019-05-18T15:48:12.819Z,2.95
2019-05-18T15:50:41.147Z,2.47
2019-05-18T15:53:09.565Z,2.87
2019-05-18T15:55:39.186Z,2.50
2019-05-18T15:58:07.491Z,2.08
2019-05-18T16:00:35.945Z,3.15
2019-05-18T16:03:04.329Z,2.70
2019-05-18T16:05:32.682Z,3.55
2019-05-18T16:08:01.165Z,4.55
2019-05-18T16:10:29.560Z,2.37
2019-05-18T16:12:57.946Z,2.50
2019-05-18T16:15:26.258Z,3.08
2019-05-18T16:17:54.591Z,3.52
2019-05-18T16:20:23.057Z,4.30
2019-05-18T16:22:51.455Z,3.25
2019-05-18T16:25:19.812Z,4.35
2019-05-18T16:27:48.199Z,3.22
2019-05-18T16:30:16.738Z,2.30
2019-05-18T16:32:45.168Z,2.72
2019-05-18T16:35:13.599Z,2.30
2019-05-18T16:37:41.979Z,3.17
2019-05-18T16:40:10.804Z,4.83
2019-05-18T16:42:39.141Z,2.12
2019-05-18T16:45:07.782Z,2.70
2019-05-18T16:47:36.116Z,3.52
2019-05-18T16:50:05.879Z,4.10
2019-05-18T16:52:34.456Z,1.95
2019-05-18T16:55:02.797Z,2.22
2019-05-18T16:57:31.140Z,3.45
2019-05-18T16:59:59.573Z,2.00
2019-05-18T17:02:31.844Z,1.90
2019-05-18T17:04:57.970Z,2.35
2019-05-18T17:07:26.263Z,1.80
2019-05-18T17:09:54.558Z,2.70
2019-05-18T17:12:23.004Z,2.37
2019-05-18T17:14:51.366Z,4.62
2019-05-18T17:17:19.762Z,3.87
2019-05-18T17:19:48.258Z,2.95
2019-05-18T17:22:16.615Z,2.30
2019-05-18T17:24:44.946Z,4.47
2019-05-18T17:27:13.374Z,2.25
2019-05-18T17:29:41.873Z,3.67
2019-05-18T17:32:10.328Z,6.40
2019-05-18T17:34:38.605Z,6.20
2019-05-18T17:37:07.000Z,5.25
2019-05-18T17:39:35.378Z,2.98
2019-05-18T17:42:05.711Z,2.70
2019-05-18T17:44:35.087Z,2.90
2019-05-18T17:47:03.471Z,3.90
2019-05-18T17:49:31.831Z,2.52
2019-05-18T17:52:00.123Z,2.72
2019-05-18T17:54:28.411Z,2.37
2019-05-18T17:57:08.171Z,3.00
2019-05-18T17:59:26.665Z,4.65
2019-05-18T18:01:55.098Z,8.53
2019-05-18T18:04:24.247Z,10.13
2019-05-18T18:06:52.660Z,4.35
2019-05-18T18:09:21.068Z,5.60
2019-05-18T18:11:49.493Z,3.62
2019-05-18T18:14:17.902Z,4.08
2019-05-18T18:16:46.213Z,7.58
2019-05-18T18:19:14.760Z,6.10
2019-05-18T18:21:43.128Z,5.67
2019-05-18T18:24:11.519Z,5.85
2019-05-18T18:26:39.891Z,8.08
2019-05-18T18:29:08.367Z,5.58
2019-05-18T18:31:36.646Z,7.53
2019-05-18T18:34:05.139Z,9.10
2019-05-18T18:36:33.498Z,5.10
2019-05-18T18:39:03.909Z,5.08
2019-05-18T18:41:32.505Z,5.05
2019-05-18T18:44:00.832Z,4.97
2019-05-18T18:46:29.257Z,7.60
2019-05-18T18:48:57.648Z,5.95
2019-05-18T18:51:26.048Z,5.85
2019-05-18T18:53:54.610Z,6.80
2019-05-18T18:56:22.980Z,7.53
2019-05-18T18:58:51.456Z,6.67
2019-05-18T19:01:19.860Z,7.35
2019-05-18T19:03:48.110Z,7.35
2019-05-18T19:06:16.500Z,7.83
2019-05-18T19:08:44.786Z,7.50
2019-05-18T19:11:14.306Z,8.58
2019-05-18T19:13:45.546Z,9.13
2019-05-18T19:16:12.704Z,11.30
2019-05-18T19:18:42.294Z,14.63
2019-05-18T19:21:10.618Z,14.78
2019-05-18T19:23:38.864Z,11.40
2019-05-18T19:26:07.109Z,12.13
2019-05-18T19:28:35.607Z,11.97
2019-05-18T19:31:03.892Z,18.52
2019-05-18T19:33:32.364Z,10.25
2019-05-18T19:36:00.725Z,9.08
2019-05-18T19:38:29.041Z,9.78
2019-05-18T19:40:57.482Z,9.83
2019-05-18T19:43:25.798Z,9.68
2019-05-18T19:45:54.163Z,13.60
2019-05-18T19:48:22.483Z,12.13
2019-05-18T19:50:50.860Z,12.82
2019-05-18T19:53:19.309Z,14.07
2019-05-18T19:55:47.771Z,18.70
2019-05-18T19:58:16.154Z,17.27
2019-05-18T20:00:45.651Z,17.48
2019-05-18T20:03:13.938Z,15.60
2019-05-18T20:05:42.263Z,13.28
2019-05-18T20:08:10.595Z,10.65
2019-05-18T20:10:38.964Z,10.60
2019-05-18T20:13:07.451Z,12.33
2019-05-18T20:15:35.928Z,11.30
2019-05-18T20:18:04.236Z,11.83
2019-05-18T20:20:32.603Z,15.72
2019-05-18T20:23:00.940Z,10.23
2019-05-18T20:25:29.341Z,12.03
2019-05-18T20:27:57.660Z,12.23
2019-05-18T20:30:25.977Z,12.23
2019-05-18T20:32:54.587Z,12.65
2019-05-18T20:35:25.737Z,12.43
2019-05-18T20:37:52.964Z,12.55
2019-05-18T20:40:21.301Z,11.60
2019-05-18T20:42:49.754Z,12.40
2019-05-18T20:45:18.063Z,16.10
2019-05-18T20:47:46.328Z,14.70
2019-05-18T20:50:14.862Z,14.10
2019-05-18T20:52:43.243Z,15.05
2019-05-18T20:55:11.807Z,13.03
2019-05-18T20:57:40.013Z,15.03
2019-05-18T21:00:08.586Z,14.35
2019-05-18T21:02:38.481Z,15.13
2019-05-18T21:05:07.126Z,15.43
2019-05-18T21:07:35.564Z,14.50
2019-05-18T21:10:04.904Z,15.20
2019-05-18T21:12:33.429Z,16.75
2019-05-18T21:15:03.275Z,14.60
2019-05-18T21:17:31.581Z,14.40
2019-05-18T21:19:59.935Z,16.50
2019-05-18T21:22:28.212Z,18.30
2019-05-18T21:24:56.526Z,19.05
2019-05-18T21:27:24.846Z,18.92
2019-05-18T21:29:53.054Z,17.60
2019-05-18T21:32:21.481Z,14.83
2019-05-18T21:34:49.775Z,15.35
2019-05-18T21:37:18.084Z,15.15
2019-05-18T21:39:46.413Z,14.85
2019-05-18T21:42:14.622Z,19.52
2019-05-18T21:44:42.970Z,21.17
2019-05-18T21:47:11.347Z,19.30
2019-05-18T21:49:39.642Z,19.23
2019-05-18T21:52:08.014Z,21.30
2019-05-18T21:54:36.495Z,22.70
2019-05-18T21:57:04.829Z,25.70
2019-05-18T21:59:33.109Z,31.02
2019-05-18T22:02:01.441Z,28.52
2019-05-18T22:04:29.823Z,23.52
2019-05-18T22:06:58.286Z,25.15
2019-05-18T22:09:26.819Z,26.73
2019-05-18T22:11:55.128Z,27.45
2019-05-18T22:14:23.610Z,27.32
2019-05-18T22:16:51.912Z,28.52
2019-05-18T22:19:20.233Z,28.70
2019-05-18T22:21:48.539Z,30.57
2019-05-18T22:24:17.022Z,31.75
2019-05-18T22:26:45.521Z,30.43
2019-05-18T22:29:13.875Z,30.52
2019-05-18T22:31:42.276Z,26.33
2019-05-18T22:34:10.657Z,26.42
2019-05-18T22:36:39.115Z,24.77
2019-05-18T22:39:09.823Z,25.50
2019-05-18T22:41:38.453Z,29.07
2019-05-18T22:44:06.792Z,27.70
2019-05-18T22:46:35.194Z,26.97
2019-05-18T22:49:03.548Z,30.70
2019-05-18T22:51:31.772Z,33.63
2019-05-18T22:54:00.244Z,34.88
2019-05-18T22:56:28.619Z,33.40
2019-05-18T22:58:56.999Z,31.25
2019-05-18T23:01:25.481Z,27.67
2019-05-18T23:03:53.840Z,26.87
2019-05-18T23:06:22.324Z,28.90
2019-05-18T23:08:50.682Z,29.18
2019-05-18T23:11:19.080Z,28.62
2019-05-18T23:13:47.565Z,30.05
2019-05-18T23:16:16.039Z,27.32
2019-05-18T23:18:56.530Z,30.17
2019-05-18T23:21:14.344Z,30.72
2019-05-18T23:23:42.831Z,27.22
2019-05-18T23:26:11.832Z,30.45
2019-05-18T23:28:40.286Z,26.70
2019-05-18T23:31:08.689Z,28.38
2019-05-18T23:33:37.269Z,25.90
2019-05-18T23:36:05.449Z,25.40
2019-05-18T23:38:33.718Z,26.27
2019-05-18T23:41:02.096Z,23.00
2019-05-18T23:43:30.455Z,28.42
2019-05-18T23:45:58.940Z,27.80
2019-05-18T23:48:27.230Z,25.27
2019-05-18T23:50:55.627Z,29.50
2019-05-18T23:53:24.078Z,31.87
2019-05-18T23:55:52.366Z,23.70
2019-05-18T23:58:20.866Z,29.23
